<?xml version="1.0" encoding="UTF-8" standalone="no" ?>
<gpx xmlns="http://www.topografix.com/GPX/1/1" xmlns:xsi="http://www.w3.org/2001/XMLSchema-instance" xsi:schemaLocation="http://www.topografix.com/GPX/1/1 http://www.topografix.com/GPX/1/1/gpx.xsd" version="1.1" creator="VisuGPX - https://www.visugpx.com">
  <metadata>
    <name>Pau-Pamir J9</name>
    <desc><![CDATA[Pau - Pamir en tandem couché:
Hyères - St Maxime.
Pas toujours facile de trouver l'itinéraire voie verte pourtant très joli.
Le balisage est très insuffisant pou s'y retrouver]]></desc>
  </metadata>
  <trk>
    <name><![CDATA[Pau-Pamir J9_1]]></name>
    <trkseg>
      <trkpt lat="43.12804" lon="6.1428">
        <ele>91.1</ele>
        <time>2018-05-24T07:03:13.000Z</time>
      </trkpt>
      <trkpt lat="43.12629" lon="6.14348">
        <ele>93.2</ele>
        <time>2018-05-24T07:22:00.000Z</time>
      </trkpt>
      <trkpt lat="43.12298" lon="6.14155">
        <ele>50.5</ele>
        <time>2018-05-24T07:24:01.000Z</time>
      </trkpt>
      <trkpt lat="43.12367" lon="6.14676">
        <ele>30.6</ele>
        <time>2018-05-24T07:26:02.000Z</time>
      </trkpt>
      <trkpt lat="43.12879" lon="6.15482">
        <ele>5.8</ele>
        <time>2018-05-24T07:28:03.000Z</time>
      </trkpt>
      <trkpt lat="43.1291" lon="6.15902">
        <ele>-7.5</ele>
        <time>2018-05-24T07:30:04.000Z</time>
      </trkpt>
      <trkpt lat="43.12675" lon="6.15482">
        <ele>3.4</ele>
        <time>2018-05-24T07:32:05.000Z</time>
      </trkpt>
      <trkpt lat="43.12387" lon="6.15823">
        <ele>-1.5</ele>
        <time>2018-05-24T07:34:06.000Z</time>
      </trkpt>
      <trkpt lat="43.1224" lon="6.16688">
        <ele>-5.7</ele>
        <time>2018-05-24T07:36:07.000Z</time>
      </trkpt>
      <trkpt lat="43.12311" lon="6.17246">
        <ele>-1.4</ele>
        <time>2018-05-24T07:38:08.000Z</time>
      </trkpt>
      <trkpt lat="43.1228" lon="6.17497">
        <ele>-3.5</ele>
        <time>2018-05-24T07:41:19.000Z</time>
      </trkpt>
      <trkpt lat="43.11752" lon="6.18243">
        <ele>-3</ele>
        <time>2018-05-24T07:43:20.000Z</time>
      </trkpt>
      <trkpt lat="43.11342" lon="6.18965">
        <ele>3.4</ele>
        <time>2018-05-24T07:45:21.000Z</time>
      </trkpt>
      <trkpt lat="43.1156" lon="6.19093">
        <ele>-1.3</ele>
        <time>2018-05-24T07:47:22.000Z</time>
      </trkpt>
      <trkpt lat="43.12167" lon="6.1865">
        <ele>4.1</ele>
        <time>2018-05-24T07:49:23.000Z</time>
      </trkpt>
      <trkpt lat="43.12524" lon="6.19288">
        <ele>1.1</ele>
        <time>2018-05-24T07:51:24.000Z</time>
      </trkpt>
      <trkpt lat="43.12628" lon="6.20169">
        <ele>-3.7</ele>
        <time>2018-05-24T07:53:25.000Z</time>
      </trkpt>
      <trkpt lat="43.12801" lon="6.21051">
        <ele>2.3</ele>
        <time>2018-05-24T07:55:26.000Z</time>
      </trkpt>
      <trkpt lat="43.13008" lon="6.21829">
        <ele>11.3</ele>
        <time>2018-05-24T07:57:27.000Z</time>
      </trkpt>
      <trkpt lat="43.13361" lon="6.22455">
        <ele>16</ele>
        <time>2018-05-24T07:59:28.000Z</time>
      </trkpt>
      <trkpt lat="43.13655" lon="6.23029">
        <ele>23.7</ele>
        <time>2018-05-24T08:01:29.000Z</time>
      </trkpt>
      <trkpt lat="43.13771" lon="6.2342">
        <ele>8.8</ele>
        <time>2018-05-24T08:03:30.000Z</time>
      </trkpt>
      <trkpt lat="43.13938" lon="6.23879">
        <ele>22.3</ele>
        <time>2018-05-24T08:05:31.000Z</time>
      </trkpt>
      <trkpt lat="43.1424" lon="6.24659">
        <ele>26.1</ele>
        <time>2018-05-24T08:07:32.000Z</time>
      </trkpt>
      <trkpt lat="43.1456" lon="6.25176">
        <ele>20</ele>
        <time>2018-05-24T08:09:33.000Z</time>
      </trkpt>
      <trkpt lat="43.14685" lon="6.26042">
        <ele>26.2</ele>
        <time>2018-05-24T08:11:34.000Z</time>
      </trkpt>
      <trkpt lat="43.14784" lon="6.26818">
        <ele>35.6</ele>
        <time>2018-05-24T08:13:35.000Z</time>
      </trkpt>
      <trkpt lat="43.14842" lon="6.27496">
        <ele>56.1</ele>
        <time>2018-05-24T08:15:36.000Z</time>
      </trkpt>
      <trkpt lat="43.14948" lon="6.28124">
        <ele>63.1</ele>
        <time>2018-05-24T08:17:37.000Z</time>
      </trkpt>
      <trkpt lat="43.15055" lon="6.28756">
        <ele>78.1</ele>
        <time>2018-05-24T08:19:38.000Z</time>
      </trkpt>
      <trkpt lat="43.14941" lon="6.29818">
        <ele>50.3</ele>
        <time>2018-05-24T08:21:38.000Z</time>
      </trkpt>
      <trkpt lat="43.1488" lon="6.30451">
        <ele>60.4</ele>
        <time>2018-05-24T08:23:39.000Z</time>
      </trkpt>
      <trkpt lat="43.1484" lon="6.31581">
        <ele>57.7</ele>
        <time>2018-05-24T08:25:40.000Z</time>
      </trkpt>
      <trkpt lat="43.14623" lon="6.32516">
        <ele>23.7</ele>
        <time>2018-05-24T08:27:41.000Z</time>
      </trkpt>
      <trkpt lat="43.14303" lon="6.33117">
        <ele>18.1</ele>
        <time>2018-05-24T08:29:42.000Z</time>
      </trkpt>
      <trkpt lat="43.14279" lon="6.33775">
        <ele>22.2</ele>
        <time>2018-05-24T08:31:43.000Z</time>
      </trkpt>
      <trkpt lat="43.14425" lon="6.34269">
        <ele>23.3</ele>
        <time>2018-05-24T08:33:44.000Z</time>
      </trkpt>
      <trkpt lat="43.14012" lon="6.35122">
        <ele>20.2</ele>
        <time>2018-05-24T08:35:45.000Z</time>
      </trkpt>
      <trkpt lat="43.13951" lon="6.35776">
        <ele>4.2</ele>
        <time>2018-05-24T08:37:46.000Z</time>
      </trkpt>
      <trkpt lat="43.13918" lon="6.3613">
        <ele>10.8</ele>
        <time>2018-05-24T08:39:48.000Z</time>
      </trkpt>
      <trkpt lat="43.13877" lon="6.36873">
        <ele>16.9</ele>
        <time>2018-05-24T08:41:49.000Z</time>
      </trkpt>
      <trkpt lat="43.13816" lon="6.37509">
        <ele>8.1</ele>
        <time>2018-05-24T08:43:50.000Z</time>
      </trkpt>
      <trkpt lat="43.14033" lon="6.37986">
        <ele>0.3</ele>
        <time>2018-05-24T08:45:51.000Z</time>
      </trkpt>
      <trkpt lat="43.14484" lon="6.38111">
        <ele>-7</ele>
        <time>2018-05-24T08:47:52.000Z</time>
      </trkpt>
      <trkpt lat="43.14512" lon="6.38797">
        <ele>-1.6</ele>
        <time>2018-05-24T08:49:53.000Z</time>
      </trkpt>
      <trkpt lat="43.14616" lon="6.39673">
        <ele>0.1</ele>
        <time>2018-05-24T08:51:54.000Z</time>
      </trkpt>
      <trkpt lat="43.15035" lon="6.40362">
        <ele>-5.7</ele>
        <time>2018-05-24T08:53:55.000Z</time>
      </trkpt>
      <trkpt lat="43.14966" lon="6.40593">
        <ele>6.5</ele>
        <time>2018-05-24T09:16:50.000Z</time>
      </trkpt>
      <trkpt lat="43.14993" lon="6.41141">
        <ele>18.7</ele>
        <time>2018-05-24T09:18:51.000Z</time>
      </trkpt>
      <trkpt lat="43.14981" lon="6.42104">
        <ele>12.8</ele>
        <time>2018-05-24T09:20:52.000Z</time>
      </trkpt>
      <trkpt lat="43.15244" lon="6.42906">
        <ele>-7.2</ele>
        <time>2018-05-24T09:22:52.000Z</time>
      </trkpt>
      <trkpt lat="43.15284" lon="6.43447">
        <ele>4.2</ele>
        <time>2018-05-24T09:24:53.000Z</time>
      </trkpt>
      <trkpt lat="43.15016" lon="6.43892">
        <ele>20.5</ele>
        <time>2018-05-24T09:26:54.000Z</time>
      </trkpt>
      <trkpt lat="43.15292" lon="6.44468">
        <ele>34.8</ele>
        <time>2018-05-24T09:28:55.000Z</time>
      </trkpt>
      <trkpt lat="43.15499" lon="6.4492">
        <ele>3</ele>
        <time>2018-05-24T09:30:56.000Z</time>
      </trkpt>
      <trkpt lat="43.15509" lon="6.45169">
        <ele>22.4</ele>
        <time>2018-05-24T09:35:55.000Z</time>
      </trkpt>
      <trkpt lat="43.15655" lon="6.4565">
        <ele>36.3</ele>
        <time>2018-05-24T09:37:56.000Z</time>
      </trkpt>
      <trkpt lat="43.1611" lon="6.46677">
        <ele>12</ele>
        <time>2018-05-24T09:39:57.000Z</time>
      </trkpt>
      <trkpt lat="43.15879" lon="6.4676">
        <ele>20.8</ele>
        <time>2018-05-24T09:41:58.000Z</time>
      </trkpt>
      <trkpt lat="43.1578" lon="6.47139">
        <ele>45.3</ele>
        <time>2018-05-24T09:43:59.000Z</time>
      </trkpt>
      <trkpt lat="43.15874" lon="6.47357">
        <ele>59.2</ele>
        <time>2018-05-24T09:46:00.000Z</time>
      </trkpt>
      <trkpt lat="43.16004" lon="6.47908">
        <ele>70.6</ele>
        <time>2018-05-24T09:48:01.000Z</time>
      </trkpt>
      <trkpt lat="43.15853" lon="6.48042">
        <ele>75.2</ele>
        <time>2018-05-24T09:54:21.000Z</time>
      </trkpt>
      <trkpt lat="43.15775" lon="6.48468">
        <ele>78.8</ele>
        <time>2018-05-24T09:56:22.000Z</time>
      </trkpt>
      <trkpt lat="43.15726" lon="6.48835">
        <ele>83.6</ele>
        <time>2018-05-24T09:58:23.000Z</time>
      </trkpt>
      <trkpt lat="43.15657" lon="6.49331">
        <ele>110.6</ele>
        <time>2018-05-24T10:00:24.000Z</time>
      </trkpt>
      <trkpt lat="43.15763" lon="6.49832">
        <ele>102.9</ele>
        <time>2018-05-24T10:02:25.000Z</time>
      </trkpt>
      <trkpt lat="43.16463" lon="6.50609">
        <ele>81.6</ele>
        <time>2018-05-24T10:04:26.000Z</time>
      </trkpt>
      <trkpt lat="43.16645" lon="6.50886">
        <ele>28.3</ele>
        <time>2018-05-24T10:06:27.000Z</time>
      </trkpt>
      <trkpt lat="43.1663" lon="6.51578">
        <ele>18.7</ele>
        <time>2018-05-24T10:08:28.000Z</time>
      </trkpt>
      <trkpt lat="43.16897" lon="6.52327">
        <ele>26.2</ele>
        <time>2018-05-24T10:10:28.000Z</time>
      </trkpt>
      <trkpt lat="43.17315" lon="6.52851">
        <ele>26.9</ele>
        <time>2018-05-24T10:12:29.000Z</time>
      </trkpt>
      <trkpt lat="43.17742" lon="6.53446">
        <ele>16.1</ele>
        <time>2018-05-24T10:14:30.000Z</time>
      </trkpt>
      <trkpt lat="43.18249" lon="6.53935">
        <ele>4.2</ele>
        <time>2018-05-24T10:16:31.000Z</time>
      </trkpt>
      <trkpt lat="43.18596" lon="6.54631">
        <ele>1.8</ele>
        <time>2018-05-24T10:18:32.000Z</time>
      </trkpt>
      <trkpt lat="43.18765" lon="6.54536">
        <ele>-1.6</ele>
        <time>2018-05-24T10:20:49.000Z</time>
      </trkpt>
      <trkpt lat="43.19222" lon="6.54322">
        <ele>6.8</ele>
        <time>2018-05-24T10:22:50.000Z</time>
      </trkpt>
      <trkpt lat="43.19753" lon="6.54773">
        <ele>25.8</ele>
        <time>2018-05-24T10:24:51.000Z</time>
      </trkpt>
      <trkpt lat="43.19586" lon="6.55331">
        <ele>40.9</ele>
        <time>2018-05-24T10:26:52.000Z</time>
      </trkpt>
      <trkpt lat="43.19988" lon="6.5556">
        <ele>58.3</ele>
        <time>2018-05-24T10:28:53.000Z</time>
      </trkpt>
      <trkpt lat="43.20299" lon="6.55964">
        <ele>61.8</ele>
        <time>2018-05-24T10:30:54.000Z</time>
      </trkpt>
      <trkpt lat="43.20636" lon="6.56341">
        <ele>76.2</ele>
        <time>2018-05-24T10:32:55.000Z</time>
      </trkpt>
      <trkpt lat="43.20671" lon="6.56842">
        <ele>100.5</ele>
        <time>2018-05-24T10:34:56.000Z</time>
      </trkpt>
      <trkpt lat="43.20851" lon="6.56846">
        <ele>105.4</ele>
        <time>2018-05-24T10:38:15.000Z</time>
      </trkpt>
      <trkpt lat="43.21183" lon="6.56994">
        <ele>96.8</ele>
        <time>2018-05-24T10:40:16.000Z</time>
      </trkpt>
      <trkpt lat="43.21857" lon="6.57448">
        <ele>59.1</ele>
        <time>2018-05-24T10:42:17.000Z</time>
      </trkpt>
      <trkpt lat="43.22379" lon="6.57638">
        <ele>51.4</ele>
        <time>2018-05-24T10:44:17.000Z</time>
      </trkpt>
      <trkpt lat="43.23007" lon="6.5752">
        <ele>40.7</ele>
        <time>2018-05-24T10:46:18.000Z</time>
      </trkpt>
      <trkpt lat="43.23341" lon="6.57458">
        <ele>49</ele>
        <time>2018-05-24T10:48:19.000Z</time>
      </trkpt>
      <trkpt lat="43.24273" lon="6.57104">
        <ele>13.5</ele>
        <time>2018-05-24T10:50:20.000Z</time>
      </trkpt>
      <trkpt lat="43.24776" lon="6.57246">
        <ele>16.9</ele>
        <time>2018-05-24T10:52:21.000Z</time>
      </trkpt>
      <trkpt lat="43.2551" lon="6.57449">
        <ele>20.3</ele>
        <time>2018-05-24T10:54:22.000Z</time>
      </trkpt>
      <trkpt lat="43.26156" lon="6.5762">
        <ele>1.6</ele>
        <time>2018-05-24T10:56:23.000Z</time>
      </trkpt>
      <trkpt lat="43.26503" lon="6.57695">
        <ele>-7.3</ele>
        <time>2018-05-24T10:58:24.000Z</time>
      </trkpt>
      <trkpt lat="43.27032" lon="6.57334">
        <ele>7.8</ele>
        <time>2018-05-24T11:00:25.000Z</time>
      </trkpt>
      <trkpt lat="43.2763" lon="6.57532">
        <ele>3.4</ele>
        <time>2018-05-24T11:02:26.000Z</time>
      </trkpt>
      <trkpt lat="43.28065" lon="6.58065">
        <ele>-1.9</ele>
        <time>2018-05-24T11:04:27.000Z</time>
      </trkpt>
      <trkpt lat="43.28175" lon="6.58493">
        <ele>-5.4</ele>
        <time>2018-05-24T11:06:28.000Z</time>
      </trkpt>
      <trkpt lat="43.28245" lon="6.58726">
        <ele>5.9</ele>
        <time>2018-05-24T12:49:30.000Z</time>
      </trkpt>
      <trkpt lat="43.2843" lon="6.59396">
        <ele>-3.4</ele>
        <time>2018-05-24T12:51:30.000Z</time>
      </trkpt>
      <trkpt lat="43.28479" lon="6.59636">
        <ele>-6.3</ele>
        <time>2018-05-24T13:25:51.000Z</time>
      </trkpt>
      <trkpt lat="43.28831" lon="6.60382">
        <ele>1.7</ele>
        <time>2018-05-24T13:27:52.000Z</time>
      </trkpt>
      <trkpt lat="43.29187" lon="6.61181">
        <ele>-11.7</ele>
        <time>2018-05-24T13:29:53.000Z</time>
      </trkpt>
      <trkpt lat="43.29629" lon="6.62">
        <ele>-5.3</ele>
        <time>2018-05-24T13:31:54.000Z</time>
      </trkpt>
      <trkpt lat="43.29795" lon="6.6251">
        <ele>1.4</ele>
        <time>2018-05-24T13:33:55.000Z</time>
      </trkpt>
      <trkpt lat="43.30454" lon="6.62858">
        <ele>-8.1</ele>
        <time>2018-05-24T13:35:56.000Z</time>
      </trkpt>
      <trkpt lat="43.30856" lon="6.63682">
        <ele>-4.2</ele>
        <time>2018-05-24T13:37:57.000Z</time>
      </trkpt>
      <trkpt lat="43.30635" lon="6.64379">
        <ele>-2.3</ele>
        <time>2018-05-24T13:39:58.000Z</time>
      </trkpt>
      <trkpt lat="43.30663" lon="6.64133">
        <ele>-3.2</ele>
        <time>2018-05-24T13:42:47.000Z</time>
      </trkpt>
      <trkpt lat="43.30998" lon="6.63913">
        <ele>12.7</ele>
        <time>2018-05-24T13:44:48.000Z</time>
      </trkpt>
      <trkpt lat="43.31229" lon="6.63625">
        <ele>22.6</ele>
        <time>2018-05-24T13:46:49.000Z</time>
      </trkpt>
      <trkpt lat="43.31545" lon="6.63656">
        <ele>29.6</ele>
        <time>2018-05-24T13:48:50.000Z</time>
      </trkpt>
      <trkpt lat="43.31865" lon="6.63923">
        <ele>24.5</ele>
        <time>2018-05-24T13:50:51.000Z</time>
      </trkpt>
      <trkpt lat="43.32215" lon="6.6453">
        <ele>22.7</ele>
        <time>2018-05-24T13:52:52.000Z</time>
      </trkpt>
      <trkpt lat="43.32238" lon="6.64942">
        <ele>21.2</ele>
        <time>2018-05-24T13:54:53.000Z</time>
      </trkpt>
      <trkpt lat="43.32282" lon="6.65408">
        <ele>21.1</ele>
        <time>2018-05-24T13:56:54.000Z</time>
      </trkpt>
    </trkseg>
  </trk>
</gpx>